Time;durP1;ratioP1;P1;durP2;ratioP2;P2;SDS_P1;SDS_P2;PMS_P1;PMS_P2;Temp;Humidity;BMP_temperature;BMP_pressure;BME280_temperature;BME280_humidity;BME280_pressure;Samples;Min_cycle;Max_cycle;Signal;HPM_P1;HPM_P2
2022/03/29 00:00:36;;;;;;;29.95;12.98;;;;;;;6.67;80.92;101500.78;5013072;28;20042;-74
2022/03/29 00:03:02;;;;;;;31.63;13.50;;;;;;;6.65;80.76;101499.06;5013464;28;20083;-74
2022/03/29 00:05:28;;;;;;;28.98;13.32;;;;;;;6.67;80.98;101500.78;5013278;28;20522;-74
2022/03/29 00:07:53;;;;;;;28.70;14.27;;;;;;;6.65;81.12;101496.38;4984674;28;20072;-74
2022/03/29 00:10:18;;;;;;;33.15;13.32;;;;;;;6.64;81.13;101491.97;5011067;28;20026;-73
2022/03/29 00:12:43;;;;;;;27.92;13.20;;;;;;;6.62;81.47;101493.84;5013034;28;20392;-73
2022/03/29 00:15:09;;;;;;;30.23;14.23;;;;;;;6.58;81.25;101491.41;5013275;28;20030;-73
2022/03/29 00:17:35;;;;;;;32.03;14.52;;;;;;;6.54;81.77;101493.34;5011539;28;20117;-73
2022/03/29 00:20:01;;;;;;;28.75;13.48;;;;;;;6.52;81.92;101497.88;5013263;28;20121;-73
2022/03/29 00:22:26;;;;;;;34.70;14.55;;;;;;;6.48;81.86;101490.94;5010608;28;20026;-73
2022/03/29 00:24:51;;;;;;;30.33;13.60;;;;;;;6.45;81.68;101485.75;5012905;28;20029;-73
2022/03/29 00:27:17;;;;;;;31.95;14.38;;;;;;;6.46;82.39;101479.50;5013016;28;20045;-73
2022/03/29 00:29:42;;;;;;;28.13;14.68;;;;;;;6.42;82.65;101478.75;5008079;28;20109;-73
2022/03/29 00:32:08;;;;;;;31.38;14.05;;;;;;;6.40;82.47;101477.06;5011644;28;20504;-73
2022/03/29 00:34:34;;;;;;;29.20;13.82;;;;;;;6.37;83.02;101472.75;5012376;28;20092;-73
2022/03/29 00:37:00;;;;;;;32.33;15.68;;;;;;;6.37;82.91;101475.44;5012105;28;20033;-73
2022/03/29 00:39:25;;;;;;;26.08;13.70;;;;;;;6.37;83.26;101469.22;5012906;28;20385;-73
2022/03/29 00:41:51;;;;;;;33.28;15.23;;;;;;;6.34;82.71;101456.88;5012732;28;20033;-73
2022/03/29 00:44:16;;;;;;;31.42;14.65;;;;;;;6.34;83.13;101464.00;5011079;28;20034;-73
2022/03/29 00:46:42;;;;;;;29.88;14.95;;;;;;;6.32;83.05;101463.22;5011868;28;20062;-73
2022/03/29 00:49:07;;;;;;;32.95;15.65;;;;;;;6.29;83.44;101456.22;5003792;28;20490;-73
2022/03/29 00:51:33;;;;;;;33.55;16.33;;;;;;;6.26;83.88;101454.53;5001529;28;20030;-73
2022/03/29 00:53:59;;;;;;;31.08;15.40;;;;;;;6.25;83.72;101450.16;5012279;28;20039;-73
2022/03/29 00:56:24;;;;;;;31.23;15.60;;;;;;;6.24;83.60;101442.22;5012540;28;20022;-73
2022/03/29 00:58:49;;;;;;;31.60;16.83;;;;;;;6.24;83.78;101445.75;5012152;28;20462;-73
2022/03/29 01:01:15;;;;;;;31.02;15.90;;;;;;;6.27;83.96;101437.59;5012228;28;20147;-73
2022/03/29 01:03:41;;;;;;;32.20;15.88;;;;;;;6.26;84.20;101435.84;5012109;28;20036;-73
2022/03/29 01:06:06;;;;;;;33.83;16.50;;;;;;;6.23;84.13;101430.66;5002421;28;20128;-73
2022/03/29 01:08:34;;;;;;;28.75;14.57;;;;;;;6.20;84.01;101438.81;4994628;28;20026;-73
2022/03/29 01:10:59;;;;;;;31.52;16.20;;;;;;;6.18;84.22;101427.34;5011276;28;20025;-73
2022/03/29 01:13:24;;;;;;;35.47;16.92;;;;;;;6.17;84.29;101424.75;5011965;28;20045;-73
2022/03/29 01:15:50;;;;;;;33.67;17.13;;;;;;;6.17;84.11;101422.09;5012258;28;20374;-73
2022/03/29 01:18:17;;;;;;;29.75;16.25;;;;;;;6.16;84.38;101425.69;5011876;28;20401;-73
2022/03/29 01:20:47;;;;;;;31.63;16.20;;;;;;;6.14;84.43;101420.41;5009243;28;20521;-73
2022/03/29 01:23:12;;;;;;;32.67;18.15;;;;;;;6.15;84.82;101426.63;5011749;28;20121;-73
2022/03/29 01:25:42;;;;;;;29.48;16.80;;;;;;;6.12;84.59;101419.63;5011761;28;20105;-73
2022/03/29 01:28:07;;;;;;;30.85;17.60;;;;;;;6.09;84.11;101420.63;5010202;28;20029;-73
2022/03/29 01:30:33;;;;;;;32.10;17.52;;;;;;;6.09;84.69;101414.41;5011780;28;20041;-73
2022/03/29 01:33:01;;;;;;;35.13;16.27;;;;;;;6.07;84.58;101413.63;5010978;28;20543;-73
2022/03/29 01:35:28;;;;;;;31.63;17.90;;;;;;;6.05;85.07;101424.38;5009759;28;20033;-73
2022/03/29 01:37:54;;;;;;;34.65;17.52;;;;;;;6.04;85.29;101424.44;5008975;28;20108;-73
2022/03/29 01:40:22;;;;;;;33.45;17.80;;;;;;;5.99;85.19;101413.97;5011572;28;20026;-73
2022/03/29 01:42:56;;;;;;;31.85;16.77;;;;;;;5.99;85.21;101410.44;5010514;28;20393;-73
2022/03/29 01:45:25;;;;;;;32.13;17.35;;;;;;;5.97;85.66;101404.28;5009260;28;20040;-73
2022/03/29 01:47:51;;;;;;;34.83;18.50;;;;;;;5.98;85.52;101406.91;5009681;28;20026;-73
2022/03/29 01:50:16;;;;;;;31.58;18.05;;;;;;;5.94;85.85;101410.59;5010065;28;20493;-73
2022/03/29 01:52:46;;;;;;;32.65;18.10;;;;;;;5.93;85.96;101407.09;5009864;28;20033;-73
2022/03/29 01:55:12;;;;;;;;;;;;;;;6.02;83.98;101405.84;5010386;28;20017;-73
2022/03/29 01:57:38;;;;;;;30.65;17.55;;;;;;;5.91;86.16;101395.59;5010990;28;19968;-73
2022/03/29 02:02:50;;;;;;;31.77;17.95;;;;;;;5.91;85.93;101395.59;5011902;28;20121;-73
2022/03/29 02:05:15;;;;;;;32.80;17.88;;;;;;;5.92;86.42;101386.66;5008721;28;20128;-73
2022/03/29 02:07:40;;;;;;;33.50;18.05;;;;;;;5.97;86.77;101380.25;4991405;28;20035;-73
2022/03/29 02:10:06;;;;;;;33.20;18.50;;;;;;;5.96;86.32;101371.41;5008429;28;20102;-73
2022/03/29 02:12:33;;;;;;;32.78;19.13;;;;;;;5.93;86.42;101375.06;5011446;28;20049;-73
2022/03/29 02:14:58;;;;;;;33.45;21.20;;;;;;;5.92;86.78;101375.16;5011173;28;20049;-73
2022/03/29 02:17:23;;;;;;;33.45;19.20;;;;;;;5.87;86.48;101372.69;5010929;28;20026;-73
2022/03/29 02:19:48;;;;;;;32.95;18.25;;;;;;;5.87;86.57;101375.34;5009607;28;20029;-73
2022/03/29 02:22:14;;;;;;;36.17;18.65;;;;;;;5.86;86.87;101365.63;5008055;28;20120;-73
2022/03/29 02:24:39;;;;;;;38.25;19.20;;;;;;;5.85;86.94;101363.88;5003963;28;20025;-73
2022/03/29 02:27:04;;;;;;;33.72;18.70;;;;;;;5.83;86.75;101357.75;5011104;28;20038;-73
2022/03/29 02:29:30;;;;;;;33.45;18.75;;;;;;;5.83;87.00;101360.41;5009660;28;20026;-73
2022/03/29 02:31:55;;;;;;;36.22;19.45;;;;;;;5.86;87.34;101354.94;5011589;28;20033;-73
2022/03/29 02:34:21;;;;;;;35.03;20.25;;;;;;;5.84;87.05;101345.28;5010951;28;20022;-73
2022/03/29 02:36:46;;;;;;;36.53;20.73;;;;;;;5.84;87.26;101348.81;5010430;28;20022;-73
2022/03/29 02:39:11;;;;;;;34.15;19.90;;;;;;;5.85;87.25;101342.53;5002275;28;20026;-73
2022/03/29 02:41:37;;;;;;;37.10;21.90;;;;;;;5.88;87.59;101344.19;5009619;28;20128;-73
2022/03/29 02:44:02;;;;;;;35.53;19.85;;;;;;;5.88;87.37;101341.53;5008138;28;20469;-73
2022/03/29 02:46:28;;;;;;;37.13;21.20;;;;;;;5.86;86.89;101344.28;5013090;28;20068;-73
2022/03/29 02:48:53;;;;;;;36.10;21.85;;;;;;;5.89;87.22;101333.47;5013183;28;20080;-73
2022/03/29 02:51:18;;;;;;;34.85;20.55;;;;;;;5.89;87.57;101329.94;5014562;28;20528;-73
2022/03/29 02:53:44;;;;;;;47.15;21.20;;;;;;;5.89;87.20;101324.59;5014314;28;20033;-73
2022/03/29 02:56:09;;;;;;;37.30;21.05;;;;;;;5.88;87.20;101321.03;5012803;28;20022;-73
2022/03/29 02:58:34;;;;;;;37.13;22.40;;;;;;;5.85;87.27;101317.66;5013223;28;20413;-73
2022/03/29 03:01:00;;;;;;;37.83;21.33;;;;;;;5.84;87.45;101322.16;5013313;28;20068;-73
2022/03/29 03:03:26;;;;;;;43.25;21.45;;;;;;;5.85;87.68;101315.84;5013272;28;20048;-73
2022/03/29 03:05:51;;;;;;;39.63;22.20;;;;;;;5.84;88.22;101316.81;5013981;28;20034;-73
2022/03/29 03:08:16;;;;;;;37.95;21.90;;;;;;;5.85;88.34;101307.84;4986921;28;20073;-73
2022/03/29 03:10:42;;;;;;;38.85;21.90;;;;;;;5.90;88.74;101312.97;5009781;28;20103;-73
2022/03/29 03:13:07;;;;;;;39.20;22.25;;;;;;;5.91;88.79;101304.88;5014499;28;20017;-73
2022/03/29 03:15:32;;;;;;;41.30;24.75;;;;;;;5.96;88.81;101304.69;5012919;28;20056;-73
2022/03/29 03:17:58;;;;;;;36.38;22.48;;;;;;;5.98;88.90;101307.34;5012517;28;20026;-73
2022/03/29 03:20:24;;;;;;;39.45;25.00;;;;;;;6.03;89.09;101307.97;5014219;28;20378;-73
2022/03/29 03:22:50;;;;;;;45.20;26.88;;;;;;;6.08;89.31;101300.63;5013978;28;20030;-73
2022/03/29 03:25:16;;;;;;;42.80;24.63;;;;;;;6.13;89.53;101303.94;5012191;28;20030;-73
2022/03/29 03:27:41;;;;;;;45.17;26.50;;;;;;;6.16;89.14;101301.09;5014147;28;20032;-73
2022/03/29 03:30:11;;;;;;;44.85;27.02;;;;;;;6.18;89.46;101293.03;5014402;28;20022;-73
2022/03/29 03:32:36;;;;;;;43.20;27.45;;;;;;;6.23;89.21;101293.69;5014181;28;20060;-73
2022/03/29 03:35:02;;;;;;;42.42;26.50;;;;;;;6.27;89.20;101292.59;5012355;28;20057;-73
2022/03/29 03:37:28;;;;;;;42.85;28.40;;;;;;;6.29;88.96;101296.91;5011241;28;20029;-73
2022/03/29 03:39:53;;;;;;;43.03;28.95;;;;;;;6.34;89.16;101293.16;5013388;28;20029;-73
2022/03/29 03:42:18;;;;;;;44.15;27.50;;;;;;;6.34;88.70;101290.47;5012826;28;20030;-73
2022/03/29 03:44:44;;;;;;;44.95;28.92;;;;;;;6.37;88.64;101287.66;5013682;28;20105;-73
2022/03/29 03:47:10;;;;;;;44.90;28.15;;;;;;;6.38;88.72;101292.06;5013102;28;20037;-73
2022/03/29 03:49:36;;;;;;;43.72;27.42;;;;;;;6.39;88.16;101293.81;5013364;28;20517;-73
2022/03/29 03:52:02;;;;;;;45.53;27.98;;;;;;;6.37;88.54;101291.22;5012473;28;20030;-73
2022/03/29 03:54:27;;;;;;;42.53;27.50;;;;;;;6.37;88.22;101293.88;5013168;28;20136;-73
2022/03/29 03:56:52;;;;;;;48.50;30.80;;;;;;;6.35;88.27;101286.88;5013187;28;20116;-73
2022/03/29 03:59:18;;;;;;;46.20;28.05;;;;;;;6.33;88.25;101283.44;5013370;28;20508;-73
2022/03/29 04:01:43;;;;;;;41.17;28.83;;;;;;;6.32;88.26;101281.69;5013181;28;20034;-73
2022/03/29 04:04:08;;;;;;;45.78;27.90;;;;;;;6.31;88.18;101283.50;5012839;28;20478;-73
2022/03/29 04:06:34;;;;;;;45.72;27.67;;;;;;;6.27;88.44;101272.09;5001086;28;20034;-73
2022/03/29 04:08:59;;;;;;;43.47;27.70;;;;;;;6.28;87.73;101265.84;4988190;28;20510;-73
2022/03/29 04:11:26;;;;;;;45.42;29.38;;;;;;;6.24;88.15;101256.25;5006649;28;20362;-73
2022/03/29 04:13:51;;;;;;;43.00;27.88;;;;;;;6.22;88.26;101254.59;5013218;28;20065;-73
2022/03/29 04:16:17;;;;;;;46.50;30.15;;;;;;;6.22;88.64;101258.13;5012491;28;20490;-73
2022/03/29 04:18:42;;;;;;;43.72;29.23;;;;;;;6.22;88.66;101254.59;5013028;28;20038;-73
2022/03/29 04:21:08;;;;;;;45.05;27.63;;;;;;;6.20;88.74;101260.00;5012451;28;20080;-73
2022/03/29 04:23:37;;;;;;;44.53;29.10;;;;;;;6.17;88.50;101252.13;5006312;28;20561;-73
2022/03/29 04:26:03;;;;;;;43.03;28.93;;;;;;;6.15;88.16;101247.81;5006889;28;20026;-73
2022/03/29 04:28:29;;;;;;;53.03;32.15;;;;;;;6.14;88.68;101244.28;5011896;28;20029;-73
2022/03/29 04:30:55;;;;;;;46.63;29.63;;;;;;;6.12;88.33;101243.50;5012999;28;20525;-73
2022/03/29 04:33:24;;;;;;;49.25;31.33;;;;;;;6.10;88.59;101235.53;5012953;28;20018;-73
2022/03/29 04:35:49;;;;;;;47.45;30.15;;;;;;;6.07;88.08;101235.69;5012340;28;20080;-73
2022/03/29 04:38:14;;;;;;;45.92;29.60;;;;;;;6.07;88.57;101229.50;5011995;28;20045;-73
2022/03/29 04:40:40;;;;;;;49.55;32.53;;;;;;;6.05;88.62;101223.38;5012818;28;20468;-73
2022/03/29 04:43:05;;;;;;;49.00;31.70;;;;;;;6.06;88.98;101235.78;5010488;28;20042;-73
2022/03/29 04:45:31;;;;;;;48.63;31.50;;;;;;;6.05;88.84;101234.06;5007990;28;20497;-73
2022/03/29 04:47:57;;;;;;;50.08;30.70;;;;;;;6.04;88.99;101240.31;5013829;28;20037;-73
2022/03/29 04:50:22;;;;;;;46.30;31.17;;;;;;;6.05;89.02;101236.72;5011398;28;20030;-73
2022/03/29 04:52:47;;;;;;;47.67;32.95;;;;;;;6.04;88.53;101232.31;5011696;28;20026;-73
2022/03/29 04:55:14;;;;;;;52.08;33.00;;;;;;;6.04;89.13;101229.66;5012110;28;20364;-73
2022/03/29 04:57:44;;;;;;;46.90;31.70;;;;;;;6.05;88.83;101220.72;5012713;28;20103;-73
2022/03/29 05:00:12;;;;;;;45.63;31.65;;;;;;;6.08;88.96;101225.91;5012019;28;20411;-73
2022/03/29 05:02:39;;;;;;;47.75;32.83;;;;;;;6.06;88.92;101227.75;5012123;28;20021;-73
2022/03/29 05:05:09;;;;;;;51.85;31.60;;;;;;;6.06;88.92;101215.31;5005417;28;20402;-73
2022/03/29 05:07:35;;;;;;;52.17;33.67;;;;;;;6.09;88.97;101215.16;4984847;28;20034;-73
2022/03/29 05:10:01;;;;;;;49.83;32.00;;;;;;;6.12;88.94;101211.47;5006666;28;20026;-73
2022/03/29 05:12:26;;;;;;;47.53;32.10;;;;;;;6.11;88.58;101217.75;5012253;28;20088;-73
2022/03/29 05:14:51;;;;;;;47.70;33.63;;;;;;;6.13;88.88;101215.84;5009953;28;20064;-73
2022/03/29 05:17:17;;;;;;;50.25;33.05;;;;;;;6.14;88.73;101209.59;5011999;28;20030;-73
2022/03/29 05:19:42;;;;;;;50.05;33.55;;;;;;;6.12;88.48;101208.81;5007287;28;20045;-73
2022/03/29 05:22:07;;;;;;;48.03;32.42;;;;;;;6.12;88.40;101216.81;5000640;28;20052;-73
2022/03/29 05:24:32;;;;;;;50.95;34.20;;;;;;;6.09;88.00;101203.59;5004602;28;20052;-73
2022/03/29 05:26:58;;;;;;;54.17;33.13;;;;;;;6.10;88.43;101208.84;5010121;28;20018;-75
2022/03/29 05:29:25;;;;;;;46.38;30.80;;;;;;;6.10;88.64;101213.34;4987819;28;20494;-74
2022/03/29 05:31:50;;;;;;;49.03;32.80;;;;;;;6.07;88.45;101209.00;4988786;28;20595;-73
2022/03/29 05:34:16;;;;;;;52.85;31.17;;;;;;;6.05;88.67;101207.38;4986202;28;20121;-73
2022/03/29 05:36:44;;;;;;;51.08;34.20;;;;;;;6.03;88.83;101223.47;4970709;28;20502;-74
2022/03/29 05:39:10;;;;;;;56.08;36.97;;;;;;;5.95;89.13;101210.44;4979149;28;20540;-73
2022/03/29 05:41:35;;;;;;;53.17;34.75;;;;;;;5.88;89.20;101217.00;4983460;28;20045;-73
2022/03/29 05:44:01;;;;;;;52.42;34.50;;;;;;;5.86;89.44;101213.56;4990253;28;20563;-73
2022/03/29 05:49:10;;;;;;;54.97;38.25;;;;;;;5.86;89.83;101213.56;4990361;28;20639;-74
2022/03/29 05:51:35;;;;;;;54.58;37.10;;;;;;;5.86;89.97;101208.22;4990359;28;20034;-75
2022/03/29 05:54:04;;;;;;;59.38;37.65;;;;;;;5.84;90.08;101212.78;4989248;28;20489;-75
2022/03/29 05:56:30;;;;;;;53.63;36.03;;;;;;;5.84;90.25;101212.78;4991287;28;20497;-74
2022/03/29 05:58:55;;;;;;;55.58;35.55;;;;;;;5.84;90.43;101214.56;4990877;28;20080;-74
2022/03/29 06:01:24;;;;;;;57.70;36.95;;;;;;;5.87;90.46;101206.41;4988410;28;20052;-74
2022/03/29 06:03:49;;;;;;;59.67;38.47;;;;;;;5.84;90.79;101212.78;4991540;28;20072;-74
2022/03/29 06:06:15;;;;;;;54.45;36.10;;;;;;;5.84;90.93;101212.78;5003982;28;20050;-75
2022/03/29 06:08:41;;;;;;;56.70;35.10;;;;;;;5.87;91.02;101209.97;5007486;28;20038;-75
2022/03/29 06:11:07;;;;;;;58.70;36.25;;;;;;;5.90;90.98;101212.47;5008132;28;20061;-75
2022/03/29 06:13:33;;;;;;;59.33;37.47;;;;;;;5.91;90.95;101205.34;5009383;28;20069;-74
2022/03/29 06:16:00;;;;;;;54.42;35.15;;;;;;;5.90;90.97;101204.47;5009183;28;20030;-74
2022/03/29 06:18:26;;;;;;;55.47;37.30;;;;;;;5.90;91.45;101207.16;5006301;28;20018;-74
2022/03/29 06:20:51;;;;;;;55.65;36.08;;;;;;;5.92;91.54;101205.25;5012697;28;20029;-74
2022/03/29 06:23:17;;;;;;;57.65;37.42;;;;;;;5.93;91.36;101208.81;5007298;28;20826;-74
2022/03/29 06:25:43;;;;;;;64.07;37.08;;;;;;;5.93;91.51;101209.66;5010855;28;20029;-74
2022/03/29 06:28:10;;;;;;;56.38;35.92;;;;;;;5.93;91.68;101212.34;5013091;28;20112;-74
2022/03/29 06:30:36;;;;;;;64.72;39.85;;;;;;;5.93;91.48;101207.00;5013458;28;20041;-74
2022/03/29 06:33:02;;;;;;;59.20;39.17;;;;;;;5.94;91.68;101200.72;5013347;28;20038;-74
2022/03/29 06:35:28;;;;;;;59.35;39.72;;;;;;;5.95;91.83;101204.25;5013894;28;20080;-75
2022/03/29 06:37:55;;;;;;;57.17;39.35;;;;;;;5.95;92.08;101201.59;5012775;28;20555;-75
2022/03/29 06:40:22;;;;;;;54.47;35.78;;;;;;;5.97;91.99;101207.72;5005952;28;20061;-75
2022/03/29 06:42:48;;;;;;;62.03;38.88;;;;;;;6.02;92.36;101199.50;5013881;28;20124;-75
2022/03/29 06:45:14;;;;;;;62.20;38.53;;;;;;;6.03;91.97;101202.13;5010253;28;20446;-75
2022/03/29 06:47:39;;;;;;;64.13;43.38;;;;;;;6.03;91.93;101214.56;5012277;28;20065;-76
2022/03/29 06:50:06;;;;;;;60.22;38.47;;;;;;;6.06;91.91;101209.09;5011065;28;20034;-75
2022/03/29 06:52:35;;;;;;;61.72;40.45;;;;;;;6.08;91.48;101202.75;5011222;28;20037;-73
2022/03/29 06:55:01;;;;;;;64.90;41.10;;;;;;;6.10;91.83;101197.34;5009643;28;20041;-73
2022/03/29 06:57:27;;;;;;;61.33;38.28;;;;;;;6.13;91.61;101205.19;5013064;28;20026;-74
2022/03/29 06:59:52;;;;;;;71.30;40.72;;;;;;;6.15;91.73;101200.66;5012816;28;20037;-74
2022/03/29 07:02:19;;;;;;;59.92;39.90;;;;;;;6.16;91.57;101197.03;5005412;28;20018;-74
2022/03/29 07:04:44;;;;;;;73.72;43.33;;;;;;;6.20;91.32;101203.09;5007787;28;20073;-75
2022/03/29 07:07:09;;;;;;;71.70;40.35;;;;;;;6.23;91.12;101189.59;5001829;28;20053;-74
2022/03/29 07:12:20;;;;;;;66.45;40.58;;;;;;;6.26;91.15;101190.28;5011430;28;20040;-74
2022/03/29 07:14:46;;;;;;;62.22;42.10;;;;;;;6.25;91.22;101190.38;5011215;28;20022;-74
2022/03/29 07:17:13;;;;;;;66.30;40.28;;;;;;;6.24;91.01;101189.50;5010319;28;20040;-75
2022/03/29 07:19:39;;;;;;;63.83;40.45;;;;;;;6.23;91.21;101189.59;5010952;28;20040;-75
2022/03/29 07:22:04;;;;;;;66.57;40.38;;;;;;;6.26;91.75;101198.28;5008186;28;20037;-75
2022/03/29 07:24:30;;;;;;;65.13;40.58;;;;;;;6.28;91.76;101196.44;5007392;28;20493;-75
2022/03/29 07:26:56;;;;;;;70.18;44.03;;;;;;;6.32;91.35;101206.97;5009848;28;20038;-75
2022/03/29 07:29:21;;;;;;;71.75;41.90;;;;;;;6.30;91.39;101205.22;5011290;28;20112;-75
2022/03/29 07:31:47;;;;;;;74.15;44.38;;;;;;;6.28;91.68;101207.13;5010023;28;20133;-75
2022/03/29 07:34:12;;;;;;;66.15;40.60;;;;;;;6.28;91.66;101208.91;5010206;28;20079;-75
2022/03/29 07:36:38;;;;;;;66.70;40.95;;;;;;;6.26;91.89;101208.97;5012519;28;20023;-76
2022/03/29 07:39:06;;;;;;;67.60;41.53;;;;;;;6.24;91.88;101204.69;5005516;28;20040;-76
2022/03/29 07:41:32;;;;;;;67.60;40.42;;;;;;;6.20;92.29;101211.94;5007923;28;20033;-75
2022/03/29 07:43:58;;;;;;;74.82;42.72;;;;;;;6.20;92.14;101213.78;5008908;28;20040;-75
2022/03/29 07:46:23;;;;;;;65.90;39.67;;;;;;;6.22;92.35;101222.56;5005851;28;20085;-75
2022/03/29 07:48:49;;;;;;;66.10;42.80;;;;;;;6.21;92.57;101221.69;5002290;28;20025;-75
2022/03/29 07:51:16;;;;;;;70.65;41.03;;;;;;;6.20;92.32;101238.63;5005236;28;20482;-75
2022/03/29 07:53:41;;;;;;;63.70;40.58;;;;;;;6.19;92.42;101233.38;4991013;28;20054;-75
2022/03/29 07:56:07;;;;;;;64.55;41.17;;;;;;;6.20;92.19;101230.63;4992483;28;20493;-75
2022/03/29 07:58:32;;;;;;;66.63;40.22;;;;;;;6.21;91.82;101227.03;4995559;28;20025;-74
2022/03/29 08:00:57;;;;;;;64.95;42.75;;;;;;;6.19;92.33;101225.38;5011572;28;20040;-77
2022/03/29 08:03:23;;;;;;;77.13;42.15;;;;;;;6.20;92.46;101225.28;5005703;28;20022;-75
2022/03/29 08:05:50;;;;;;;74.90;43.28;;;;;;;6.21;92.79;101216.34;5011505;28;20083;-75
2022/03/29 08:08:16;;;;;;;70.45;43.67;;;;;;;6.24;92.85;101223.34;5011768;28;20458;-78
2022/03/29 08:10:43;;;;;;;71.88;43.67;;;;;;;6.26;92.70;101219.66;5008553;28;20084;-73
2022/03/29 08:13:14;;;;;;;73.60;44.25;;;;;;;6.31;92.79;101216.78;5009810;28;20025;-73
2022/03/29 08:15:40;;;;;;;69.35;42.15;;;;;;;6.37;92.53;101207.56;5010281;28;20068;-73
2022/03/29 08:18:07;;;;;;;71.15;43.70;;;;;;;6.42;92.54;101214.41;5011776;28;20393;-73
2022/03/29 08:20:33;;;;;;;72.00;44.33;;;;;;;6.43;92.16;101215.31;5011528;28;20072;-73
2022/03/29 08:23:01;;;;;;;78.63;42.67;;;;;;;6.43;92.29;101204.63;5010148;28;20026;-74
2022/03/29 08:25:31;;;;;;;76.00;43.75;;;;;;;6.46;91.86;101205.31;5007363;28;21616;-74
2022/03/29 08:27:58;;;;;;;71.78;43.10;;;;;;;6.45;91.80;101203.56;5000469;28;20025;-74
2022/03/29 08:30:27;;;;;;;73.75;44.13;;;;;;;6.48;91.96;101207.91;5009500;28;20486;-74
2022/03/29 08:32:53;;;;;;;68.57;42.13;;;;;;;6.46;91.95;101202.66;5011309;28;20044;-73
2022/03/29 08:35:19;;;;;;;70.30;42.20;;;;;;;6.48;92.32;101200.75;5011305;28;20613;-73
2022/03/29 08:37:46;;;;;;;64.25;42.13;;;;;;;6.51;92.18;101205.06;5007144;28;20034;-73
2022/03/29 08:40:16;;;;;;;68.13;43.30;;;;;;;6.54;92.39;101212.06;5012049;28;20030;-73
2022/03/29 08:42:46;;;;;;;71.38;43.17;;;;;;;6.54;91.82;101207.59;5008298;28;20097;-74
2022/03/29 08:45:14;;;;;;;71.70;41.15;;;;;;;6.58;91.60;101205.66;5011174;28;20034;-74
2022/03/29 08:47:42;;;;;;;66.60;43.78;;;;;;;6.61;92.18;101214.34;5000959;28;20034;-74
2022/03/29 08:50:09;;;;;;;62.15;39.15;;;;;;;6.66;91.51;101222.13;4998914;28;20130;-74
2022/03/29 08:52:35;;;;;;;63.72;39.60;;;;;;;6.71;91.38;101219.25;5007879;28;20568;-74
2022/03/29 08:55:03;;;;;;;72.35;41.80;;;;;;;6.75;91.26;101211.00;5010600;28;20083;-74
2022/03/29 08:57:29;;;;;;;72.82;44.45;;;;;;;6.73;90.80;101214.69;5013678;28;20549;-74
2022/03/29 08:59:54;;;;;;;66.80;41.13;;;;;;;6.73;90.95;101206.66;5009776;28;20042;-74
2022/03/29 09:02:20;;;;;;;74.72;44.83;;;;;;;6.75;91.72;101208.31;5010718;28;20460;-74
2022/03/29 09:05:06;;;;;;;73.47;43.28;;;;;;;6.79;90.82;101209.91;5009504;28;20057;-74
2022/03/29 09:07:50;;;;;;;67.10;42.55;;;;;;;6.79;91.13;101204.56;5007743;28;20863;-74
2022/03/29 09:10:17;;;;;;;74.55;43.53;;;;;;;6.80;90.77;101200.91;4991414;28;20029;-74
2022/03/29 09:12:42;;;;;;;76.93;45.25;;;;;;;6.83;91.08;101202.56;5008500;28;20129;-75
2022/03/29 09:15:09;;;;;;;78.07;44.78;;;;;;;6.84;91.24;101193.63;5006415;28;20514;-75
2022/03/29 09:17:37;;;;;;;78.68;46.05;;;;;;;6.89;91.55;101193.38;5008578;28;20065;-75
2022/03/29 09:20:06;;;;;;;72.45;45.33;;;;;;;6.92;90.89;101195.88;5004319;28;20026;-75
2022/03/29 09:22:35;;;;;;;73.28;42.88;;;;;;;6.92;90.76;101196.72;5004148;28;20056;-75
2022/03/29 09:25:01;;;;;;;69.50;43.55;;;;;;;6.94;90.73;101200.22;5007125;28;20030;-75
2022/03/29 09:27:26;;;;;;;83.40;46.20;;;;;;;6.97;90.51;101201.88;5009605;28;20385;-75
2022/03/29 09:30:08;;;;;;;83.30;45.38;;;;;;;6.97;90.40;101202.72;5010535;28;20117;-75
2022/03/29 09:32:34;;;;;;;85.50;47.97;;;;;;;6.95;89.82;101195.72;5009602;28;20121;-75
2022/03/29 09:35:08;;;;;;;94.10;50.63;;;;;;;6.95;89.72;101204.59;5009587;28;20114;-74
2022/03/29 09:37:34;;;;;;;85.93;46.47;;;;;;;6.98;90.07;101198.22;5008289;28;20072;-75
2022/03/29 09:40:00;;;;;;;85.47;47.60;;;;;;;6.97;90.20;101188.50;5007825;28;20057;-75
2022/03/29 09:42:27;;;;;;;85.28;47.78;;;;;;;7.03;90.58;101190.84;5007627;28;20473;-75
2022/03/29 09:44:54;;;;;;;87.50;48.95;;;;;;;7.06;89.97;101188.00;4998627;28;20037;-75
2022/03/29 09:47:21;;;;;;;94.00;47.88;;;;;;;7.11;90.22;101180.59;5006632;28;20053;-75
2022/03/29 09:50:08;;;;;;;90.28;48.75;;;;;;;7.15;89.23;101175.97;5008478;28;20575;-74
2022/03/29 09:52:42;;;;;;;85.53;48.40;;;;;;;7.18;89.78;101171.28;4989223;28;20145;-74
2022/03/29 09:55:20;;;;;;;84.00;47.25;;;;;;;7.24;89.85;101175.44;5009253;28;20394;-74
2022/03/29 09:57:49;;;;;;;94.70;49.50;;;;;;;7.22;89.30;101172.00;5008612;28;20022;-74
2022/03/29 10:00:24;;;;;;;88.65;49.13;;;;;;;7.22;89.14;101166.66;5009701;28;20064;-74
2022/03/29 10:02:50;;;;;;;84.90;49.70;;;;;;;7.24;89.86;101164.75;5009286;28;20060;-74
2022/03/29 10:05:18;;;;;;;94.60;53.10;;;;;;;7.30;89.88;101169.75;5007297;28;20042;-74
2022/03/29 10:10:43;;;;;;;84.90;47.58;;;;;;;7.37;89.80;101150.75;5009096;28;21636;-74
2022/03/29 10:13:08;;;;;;;78.45;48.63;;;;;;;7.38;88.83;101155.13;5006499;28;20091;-74
2022/03/29 10:15:34;;;;;;;74.95;45.60;;;;;;;7.38;88.52;101150.66;4994958;28;20572;-74
2022/03/29 10:18:00;;;;;;;78.13;45.45;;;;;;;7.41;88.78;101150.47;4988896;28;20025;-75
2022/03/29 10:20:25;;;;;;;79.18;47.10;;;;;;;7.38;88.36;101153.31;4989570;28;20033;-74
2022/03/29 10:22:51;;;;;;;72.10;44.03;;;;;;;7.39;88.90;101144.34;4993382;28;20041;-76
2022/03/29 10:25:17;;;;;;;69.32;42.95;;;;;;;7.42;88.89;101146.84;4990905;28;20025;-74
2022/03/29 10:27:42;;;;;;;69.13;42.00;;;;;;;7.46;88.84;101150.22;4991394;28;20108;-76
2022/03/29 10:30:08;;;;;;;63.10;37.72;;;;;;;7.46;88.38;101151.06;4989113;28;20042;-77
2022/03/29 10:32:33;;;;;;;62.83;41.90;;;;;;;7.50;nan;101149.09;4990586;28;20038;-77
2022/03/29 10:35:09;;;;;;;67.15;40.58;;;;;;;7.59;88.83;101148.59;4992149;28;20030;-76
2022/03/29 10:37:52;;;;;;;53.40;35.92;;;;;;;7.65;88.83;101147.38;4988938;28;20084;-79
2022/03/29 10:40:39;;;;;;;59.83;39.67;;;;;;;7.70;88.24;101140.81;4991991;28;20037;-75
2022/03/29 10:43:28;;;;;;;61.50;36.90;;;;;;;7.70;87.87;101132.81;4992964;28;20040;-75
2022/03/29 10:45:54;;;;;;;;;;;;;;;7.79;87.98;101131.41;4991178;28;20069;-76
2022/03/29 10:48:19;;;;;;;63.38;38.50;;;;;;;7.83;86.84;101130.28;4993632;28;19964;-77
2022/03/29 10:50:56;;;;;;;59.17;37.28;;;;;;;7.97;87.98;101124.13;4992765;28;20022;-77
2022/03/29 10:53:36;;;;;;;54.10;35.80;;;;;;;8.07;86.65;101123.59;4987518;28;20069;-76
2022/03/29 10:56:13;;;;;;;61.50;36.60;;;;;;;8.11;86.03;101119.78;4991706;28;20056;-80
2022/03/29 10:59:00;;;;;;;54.85;36.15;;;;;;;8.12;86.25;101119.69;4991946;28;20121;-75
2022/03/29 11:01:26;;;;;;;59.58;36.22;;;;;;;8.13;85.58;101120.56;4993886;28;20536;-75
2022/03/29 11:04:17;;;;;;;59.50;36.92;;;;;;;8.20;85.97;101111.22;4989725;28;20038;-75
2022/03/29 11:07:04;;;;;;;53.22;34.72;;;;;;;8.24;86.01;101107.38;4991026;28;20181;-74
2022/03/29 11:09:30;;;;;;;54.30;35.10;;;;;;;8.29;86.28;101097.28;4995714;28;20397;-76
2022/03/29 11:11:55;;;;;;;51.42;33.25;;;;;;;8.32;85.49;101098.91;4995161;28;20038;-74
2022/03/29 11:14:27;;;;;;;51.90;33.97;;;;;;;8.37;85.92;101097.66;4994965;28;20516;-74
2022/03/29 11:16:52;;;;;;;53.15;33.47;;;;;;;8.43;85.36;101095.59;4998779;28;20053;-74
2022/03/29 11:19:39;;;;;;;56.50;34.25;;;;;;;8.48;85.75;101098.91;4994639;28;20490;-75
2022/03/29 11:22:31;;;;;;;61.45;37.45;;;;;;;8.59;86.16;101093.72;4993827;28;20037;-75
2022/03/29 11:24:59;;;;;;;57.15;35.58;;;;;;;8.66;85.00;101089.72;4996406;28;20072;-75
2022/03/29 11:27:27;;;;;;;55.08;34.08;;;;;;;8.72;85.01;101089.34;4994458;28;20038;-74